Flight Track Log - Related Links

Times and Time Zones

All times are in EDT time to prevent confusion due to time zone crossing. See the EJA396 flight status page for this flight to view local times or setup timezone preferences in your user account.

Time Position Orientation Groundspeed Altitude Reporting Facility
EDT Latitude Longitude Course Direction KTS MPH feet Rate Location/Type
Wed 02:32:28 PM 44.5667 -68.3717 249° West 271 312 6,800  Level Boston Center
Wed 02:33:28 PM 44.5494 -68.4750 257° West 177 204 10,300 3,300 Climbing Boston Center
Wed 02:34:28 PM 44.5156 -68.5792 246° West 233 268 13,400 3,045 Climbing Boston Center
Wed 02:35:40 PM 44.4742 -68.7186 247° West 284 327 17,000 3,045 Climbing Boston Center
Wed 02:36:40 PM 44.4322 -68.8436 245° Southwest 326 375 20,100 2,800 Climbing Boston Center
Wed 02:37:00 PM 44.2300 -69.1119 249° West  Level FlightAware Approximate
Wed 02:37:40 PM 44.3964 -68.9619 247° West 349 402 22,600  Level Boston Center
Wed 02:38:40 PM 44.3431 -69.1306 246° West 382 440 24,000 700 Climbing Boston Center
Wed 02:39:40 PM 44.2969 -69.2783 246° West 407 468 24,000  Level Boston Center
Wed 02:40:40 PM 44.2511 -69.4256 247° West 414 476 24,000  Level Boston Center
Wed 02:41:40 PM 44.2067 -69.5669 246° West 414 476 24,000  Level Boston Center
Wed 02:42:40 PM 44.1622 -69.7081 246° West 402 463 24,000  Level Boston Center
Wed 02:43:40 PM 44.1156 -69.8489 245° Southwest 402 463 24,000  Level Boston Center
Wed 02:44:40 PM 44.0686 -69.9928 246° West 407 468 24,000  Level Boston Center
Wed 02:45:40 PM 44.0256 -70.1331 247° West 407 468 24,000  Level Boston Center
Wed 02:46:40 PM 43.9844 -70.2586 246° West 402 463 24,000  Level Boston Center
Wed 02:47:40 PM 43.9369 -70.3989 245° Southwest 402 463 24,000  Level Boston Center
Wed 02:48:40 PM 43.8914 -70.5386 246° West 402 463 24,000  Level Boston Center
Wed 02:49:40 PM 43.8436 -70.6814 245° Southwest 402 463 24,000  Level Boston Center
Wed 02:50:40 PM 43.7958 -70.8264 246° West 407 468 24,000  Level Boston Center
Wed 02:51:40 PM 43.7517 -70.9600 245° Southwest 401 461 24,000  Level Boston Center
Wed 02:52:40 PM 43.7033 -71.0961 244° Southwest 401 461 24,000  Level Boston Center
Wed 02:53:40 PM 43.6611 -71.2347 247° West 401 461 24,000  Level Boston Center
Wed 02:54:40 PM 43.6144 -71.3675 244° Southwest 396 456 24,000  Level Boston Center
Wed 02:55:40 PM 43.5719 -71.5003 246° West 396 456 24,000  Level Boston Center
Wed 02:56:40 PM 43.5331 -71.6067 243° Southwest 391 450 24,000  Level Boston Center
Wed 02:57:52 PM 43.4781 -71.7647 244° Southwest 386 444 24,000  Level Boston Center
Wed 02:58:52 PM 43.4206 -71.9283 244° Southwest 386 444 24,000  Level Boston Center
Wed 02:59:52 PM 43.3750 -72.0658 246° West 392 451 24,000  Level Boston Center
Wed 03:00:52 PM 43.3275 -72.2003 244° Southwest 392 451 24,000  Level Boston Center
Wed 03:01:52 PM 43.2797 -72.3344 244° Southwest 392 451 24,000  Level Boston Center
Wed 03:02:52 PM 43.2342 -72.4658 245° Southwest 392 451 24,000  Level Boston Center
Wed 03:04:04 PM 43.1861 -72.6025 244° Southwest 392 451 24,000  Level Boston Center
Wed 03:05:16 PM 43.1272 -72.7586 243° Southwest 392 451 24,000  Level Boston Center
Wed 03:06:16 PM 43.0789 -72.8919 244° Southwest 392 451 24,000  Level Boston Center
Wed 03:07:16 PM 43.0197 -73.0678 245° Southwest 392 451 24,000 -650 Level Boston Center
Wed 03:08:16 PM 42.9731 -73.1978 244° Southwest 387 445 22,700 -1,350 Descending Boston Center
Wed 03:09:16 PM 42.9264 -73.3219 243° Southwest 387 445 21,300 -1,300 Descending Boston Center
Wed 03:10:16 PM 42.8817 -73.4347 242° Southwest 382 440 20,100 -900 Descending Boston Center
Wed 03:11:16 PM 42.8344 -73.5725 245° Southwest 377 434 19,500 -700 Descending Boston Center
Wed 03:12:16 PM 42.7939 -73.6767 242° Southwest 360 414 18,700 -1,300 Descending Boston Center
Wed 03:13:16 PM 42.7342 -73.7997 237° Southwest 355 409 16,900 -1,100 Descending Boston Center
Wed 03:14:16 PM 42.6603 -73.8744 217° Southwest 338 389 16,500 -950 Descending Boston Center
Wed 03:15:16 PM 42.5783 -73.9289 206° Southwest 333 383 15,000 -1,250 Descending Boston Center
Wed 03:16:16 PM 42.5025 -73.9861 209° Southwest 338 389 14,000 -500 Descending Boston Center
Wed 03:17:16 PM 42.4139 -74.0486 208° Southwest 330 380 14,000 -50 Level Boston Center
Wed 03:18:16 PM 42.3486 -74.0975 209° Southwest 330 380 13,900 -50 Descending Boston Center
Wed 03:19:16 PM 42.2517 -74.1708 209° Southwest 335 386 13,900  Level Boston Center
Wed 03:20:16 PM 42.1781 -74.2247 208° Southwest 328 377 13,900  Level Boston Center
Wed 03:21:16 PM 42.0894 -74.2894 208° Southwest 334 384 13,900 -350 Level Boston Center
Wed 03:22:16 PM 42.0297 -74.3603 221° Southwest 321 369 13,200 -1,350 Descending Boston Center
Wed 03:23:16 PM 41.9967 -74.4739 249° West 299 344 11,200 -1,850 Descending Boston Center
Wed 03:24:16 PM 41.9742 -74.5625 251° West 294 338 9,500 -1,800 Descending Boston Center
Wed 03:25:16 PM 41.9067 -74.5964 200° South 230 265 7,600 -1,250 Descending Boston Center
Wed 03:26:16 PM 41.8464 -74.5944 179° South 236 272 7,000 -300 Descending Boston Center
Wed 03:27:16 PM 41.7650 -74.5944 180° South 256 295 7,000  Level Boston Center
Wed 03:28:40 PM 41.6797 -74.5942 180° South 256 295 7,000  Level Boston Center
Wed 03:29:40 PM 41.6025 -74.5917 179° South 251 289 7,000 -100 Level Boston Center
Wed 03:30:40 PM 41.5275 -74.5919 180° South 251 289 6,800 -450 Descending Boston Center
Wed 03:31:40 PM 41.4672 -74.5900 179° South 251 289 6,100 -311 Descending Boston Center
Wed 03:32:55 PM 41.3667 -74.6000 184° South 255 293 6,100  Level New York TRACON
Wed 03:34:01 PM 41.3000 -74.6333 201° Southwest 231 266 6,100 -550 Level New York TRACON
Wed 03:34:55 PM 41.2500 -74.6500 194° South 230 265 5,000 -1,053 Descending New York TRACON
Wed 03:35:55 PM 41.1833 -74.6500 180° South 238 274 4,100 -429 Descending New York TRACON
Wed 03:37:01 PM 41.1167 -74.6333 169° South 246 283 4,100  Level New York TRACON
Wed 03:37:55 PM 41.0500 -74.6333 180° South 231 266 4,100  Level New York TRACON
Wed 03:39:01 PM 41.0833 -74.5667 56° Northeast 235 270 4,100  Level New York TRACON
Wed 03:40:01 PM 41.1333 -74.5167 37° Northeast 225 259 4,100  Level New York TRACON
Wed 03:40:55 PM 41.1667 -74.4500 56° Northeast 230 265 4,100 -350 Level New York TRACON
Wed 03:42:01 PM 41.1667 -74.3667 90° East 225 259 3,400 -476 Descending New York TRACON
Wed 03:43:01 PM 41.1333 -74.3000 124° Southeast 193 222 3,100 -150 Descending New York TRACON
Wed 03:44:01 PM 41.1167 -74.2333 108° East 193 222 3,100  Level New York TRACON
Wed 03:45:07 PM 41.0833 -74.1667 124° Southeast 192 221 3,100 -238 Level New York TRACON
Wed 03:46:07 PM 41.0500 -74.1000 124° Southeast 204 235 2,600 -500 Descending New York TRACON

Login

Don't have an account? Register now (free) for customized features, flight alerts, and more!